Aérodrome :
LOGIN :

S'inscrire | Disclaimer

   EN    FR    IT 

 










Légende :    VFR   VFR Marginal   IFR   IFR Intensif   IFR Très Intensif
Visi : 
Plafond : 
>= 8 km
>= 3000ft
5 à 8 km
1000 à 3000 ft
1500m à 5 km
500 à 1000 ft
800 à 1500m
200 à 500 ft
< 800m
< 200 ft
Symboles :   Orages  Brouillard  Fortes neiges  Fortes précipitations  Vent > 20 kt
SIGMETs :   Divers  Orages  Givrage  Turbulence  Onde Orograph.  Cendres Volcan.






- Altitude de l'aérodrome : 308 ft
- Code IATA : ATH


LGAV - Eleftherios Venizelos Int.

DERNIER METAR :
  • 221550Z 34001KT CAVOK 09/03 Q1027 NOSIG

METARs EXPIRÉS :
  • 221520Z 07002KT CAVOK 10/05 Q1027 NOSIG
  • 221450Z 05006KT CAVOK 11/04 Q1027 NOSIG
  • 221420Z 05007KT 020V080 CAVOK 12/03 Q1028 NOSIG
  • 221350Z 07005KT 050V120 CAVOK 12/03 Q1028 NOSIG
  • 221320Z 07006KT CAVOK 12/03 Q1028 NOSIG

TAF TAF LGAV
Valide du 22 à 12h jusqu'au 23 à 12h UTC


221100Z 2212/2312 01012KT 9999 FEW025
BECMG 2216/2218 26010KT
BECMG 2301/2303 33010KT



MET'MAP, la Météo Aéronautique d'un coup d'oeil ! - Copyright ORBIFLY Décembre 2007 - Disclaimer

ORBIFLY MET'MAP TEAM :

Programmation & Développement : Alexandra Zaïnal
Sur une idée originale de : Baudouin d'Aumeries
Assistance à la programmation : Marc-Olivier Méhu
Soutien technique & logistique : Manuel Goepfert

Contact : metmap@orbifly.com




SOURCES & CREDITS :

   NOAA